Deansboro, New York
Current Conditions -  °F | °C
As of 6:53 PM on Monday 20 Oct 2014 (Local Time) from KRME Reporting Station
Overcast Overcast  
Wind Chill: 50°   Ceiling: 7500
Heat Index: 50°   Visibility: 10mi
Dew Point: 41°   Wind: 5mph
Humidity: 71%   Direction: 100°E
Pressure: 29.91"   Gusts: NA
Location:  42.99°N, 75.43°W
Report Text: KRME 202253Z 10004KT 10SM FEW055 OVC075 10/05 A2991 RMK AO2 SLP130 T01000050
Loading
Personal Weather Stations






























Interactive Weather Map
Tropical Storm Tracking
New forecast layout! Learn more

10-Day Weather Forecast

Advertisements
Track Severe Weather on mobile